8W2

New Market Airport

New Market, Virginia, USA
METAR K8W2 260555Z AUTO 00000KT 10SM SCT042 SCT050 12/05 A2982 RMK AO1 T01150047 10173 20115
Observed Flight Rules
Apr-26 @ 05:55 UTC (6 minutes ago) Visual Flight Rules
Visibility Clouds
10 miles
  • Scattered at 4,200' AGL
  • Scattered at 5,000' AGL
Temperatures Readings
Current 12°C / 54°F
Dewpoint 5°C / 41°F
Humidity 63%
Altimeter 29.82" Hg
Pressure 1010 hPa
Elevation 297
METAR K8W2 260555Z AUTO 00000KT 10SM SCT042 SCT050 12/05 A2982 RMK AO1 T01150047 10173 20115
Observed Flight Rules
Apr-26 @ 05:55 UTC
(6 minutes ago)
VFR
Clouds
  • Scattered at 4,200' AGL
  • Scattered at 5,000' AGL
Temperature Dewpoint
12°C / 54°F 5°C / 41°F
Humidity Altimeter Pressure
63% 29.82" Hg 1010 hPa